Time;durP1;ratioP1;P1;durP2;ratioP2;P2;SDS_P1;SDS_P2;PMS_P1;PMS_P2;Temp;Humidity;BMP_temperature;BMP_pressure;BME280_temperature;BME280_humidity;BME280_pressure;Samples;Min_cycle;Max_cycle;Signal;HPM_P1;HPM_P2
2022/03/21 00:01:45;;;;;;;32.13;16.83;;;-1.00;1.00;;;-0.05;84.25;101653.13;4999611;28;129466;-64
2022/03/21 00:04:16;;;;;;;24.10;12.25;;;-1.00;1.00;;;-0.06;84.72;101646.16;5019865;28;118570;-64
2022/03/21 00:06:45;;;;;;;22.60;11.85;;;-0.90;1.00;;;-0.07;84.73;101650.66;5000109;28;116194;-63
2022/03/21 00:09:13;;;;;;;16.30;9.02;;;-1.00;1.00;;;-0.03;85.70;101646.59;5002731;28;129640;-64
2022/03/21 00:11:42;;;;;;;19.38;9.05;;;-0.90;1.00;;;0.11;86.18;101646.72;5000879;28;130081;-64
2022/03/21 00:14:12;;;;;;;18.08;9.40;;;-0.60;1.00;;;0.17;86.32;101645.97;5001067;28;118890;-64
2022/03/21 00:16:41;;;;;;;18.17;10.30;;;-0.50;1.00;;;0.17;85.70;101645.97;5001472;28;115887;-65
2022/03/21 00:19:10;;;;;;;22.77;10.23;;;-0.60;1.00;;;0.16;85.50;101644.34;5019086;28;129864;-66
2022/03/21 00:21:41;;;;;;;20.15;11.00;;;-0.60;1.00;;;0.10;85.33;101647.75;5002990;28;130154;-66
2022/03/21 00:24:09;;;;;;;20.30;9.70;;;-0.60;1.00;;;0.04;84.96;101645.84;5002712;28;117739;-66
2022/03/21 00:26:38;;;;;;;17.88;9.27;;;-0.70;1.00;;;0.04;85.21;101640.50;5001057;28;115093;-64
2022/03/21 00:29:14;;;;;;;;;;;-0.80;1.00;;;-0.13;85.80;101635.38;5018225;27;130335;-66
2022/03/21 00:31:44;;;;;;;19.35;10.20;;;-0.80;1.00;;;-0.14;85.53;101638.25;5001005;28;130866;-63
2022/03/21 00:34:14;;;;;;;16.35;8.68;;;-0.70;1.00;;;-0.11;85.67;101633.38;5002778;28;118480;-64
2022/03/21 00:36:45;;;;;;;17.92;9.05;;;-0.80;1.00;;;-0.13;86.07;101635.38;5001087;28;115148;-65
2022/03/21 00:39:13;;;;;;;17.17;9.38;;;-0.80;1.00;;;-0.12;85.52;101633.56;5000366;28;129913;-65
2022/03/21 00:41:42;;;;;;;17.67;9.48;;;-0.90;1.00;;;-0.12;85.66;101633.56;5000716;28;130073;-64
2022/03/21 00:44:11;;;;;;;16.67;8.90;;;-0.90;1.00;;;-0.14;84.86;101632.91;5000916;28;119305;-64
2022/03/21 00:46:39;;;;;;;24.90;12.15;;;-1.00;1.00;;;-0.17;85.27;101634.13;5002979;28;114474;-65
2022/03/21 00:49:11;;;;;;;20.70;10.80;;;-1.10;1.00;;;-0.19;85.98;101625.47;4999825;28;130325;-65
2022/03/21 00:51:41;;;;;;;21.30;11.35;;;-1.00;1.00;;;-0.20;85.95;101626.50;5018606;28;129297;-64
2022/03/21 00:54:10;;;;;;;27.02;14.20;;;-1.00;1.00;;;-0.20;85.92;101629.97;5019390;28;118363;-64
2022/03/21 00:56:40;;;;;;;24.17;12.98;;;-1.10;1.00;;;-0.23;86.71;101624.19;5018576;28;116052;-66
2022/03/21 00:59:09;;;;;;;18.40;10.98;;;-1.00;1.00;;;-0.23;86.52;101618.84;5018683;28;129458;-67
2022/03/21 01:01:40;;;;;;;26.23;13.63;;;-1.10;1.00;;;-0.28;86.28;101626.56;5002522;28;129829;-69
2022/03/21 01:04:09;;;;;;;26.73;13.98;;;-1.20;1.00;;;-0.31;86.65;101621.63;5019173;28;118955;-68
2022/03/21 01:06:38;;;;;;;31.67;14.55;;;-1.20;1.00;;;-0.37;86.86;101617.88;5019045;28;115760;-65
2022/03/21 01:09:09;;;;;;;62.60;30.05;;;-1.20;1.00;;;-0.37;86.41;101623.22;5019994;28;130204;-64
2022/03/21 01:11:39;;;;;;;47.78;25.35;;;-1.30;1.00;;;-0.40;86.49;101619.06;5019956;28;129652;-65
2022/03/21 01:14:08;;;;;;;35.05;17.70;;;-1.40;1.00;;;-0.43;86.32;101624.78;5021948;28;118122;-65
2022/03/21 01:16:36;;;;;;;46.65;24.55;;;-1.40;1.00;;;-0.49;87.13;101630.03;5020082;28;116010;-65
2022/03/21 01:19:05;;;;;;;44.92;24.85;;;-1.40;1.00;;;-0.51;86.70;101630.22;5019987;28;129751;-65
2022/03/21 01:21:36;;;;;;;45.28;22.95;;;-1.50;1.00;;;-0.53;86.68;101624.25;5021297;28;128307;-66
2022/03/21 01:24:05;;;;;;;39.13;19.83;;;-1.60;1.00;;;-0.57;86.92;101615.78;5021904;28;118493;-69
2022/03/21 01:26:33;;;;;;;24.70;13.90;;;-1.60;1.00;;;-0.62;87.43;101620.84;5022047;28;115469;-67
2022/03/21 01:29:03;;;;;;;23.23;11.02;;;-1.60;1.00;;;-0.62;89.16;101615.50;5021436;28;129148;-65
2022/03/21 01:31:31;;;;;;;21.90;10.45;;;-1.40;1.00;;;-0.56;89.01;101619.28;5019940;28;129496;-67
2022/03/21 01:34:00;;;;;;;16.15;9.10;;;-1.40;1.00;;;-0.58;89.19;101622.13;5020193;28;118884;-65
2022/03/21 01:36:29;;;;;;;19.60;8.60;;;-1.40;1.00;;;-0.60;90.06;101618.81;5018969;28;115126;-67
2022/03/21 01:38:58;;;;;;;17.73;9.63;;;-1.30;1.00;;;-0.60;90.02;101623.31;5019816;28;130122;-67
2022/03/21 01:41:27;;;;;;;16.70;8.38;;;-1.30;1.00;;;-0.56;90.48;101619.28;5005660;28;129659;-66
2022/03/21 01:44:00;;;;;;;18.67;9.98;;;-1.20;1.00;;;-0.50;90.60;101621.19;5024959;28;118736;-66
2022/03/21 01:46:31;;;;;;;25.83;12.15;;;-1.10;1.00;;;-0.49;91.21;101624.69;5023660;28;116510;-66
2022/03/21 01:49:01;;;;;;;19.02;10.45;;;-1.00;1.00;;;-0.49;90.59;101628.19;5023085;28;129572;-67
2022/03/21 01:51:32;;;;;;;23.02;10.75;;;-1.00;1.00;;;-0.50;90.55;101623.84;5021601;28;129405;-66
2022/03/21 01:56:48;;;;;;;17.75;9.57;;;-1.10;1.00;;;-0.57;91.12;101613.09;5023307;28;116134;-66
2022/03/21 01:59:19;;;;;;;19.95;10.02;;;-1.10;1.00;;;-0.58;91.00;101613.28;5025091;28;129495;-67
2022/03/21 02:01:51;;;;;;;18.33;9.27;;;-1.10;1.00;;;-0.59;90.77;101609.00;5023068;28;129362;-67
2022/03/21 02:04:27;;;;;;;18.25;9.52;;;-1.10;1.00;;;-0.64;91.17;101622.03;5023655;28;118748;-66
2022/03/21 02:06:56;;;;;;;15.95;8.93;;;-1.20;1.00;;;-0.61;91.49;101617.19;5026414;28;114276;-66
2022/03/21 02:09:24;;;;;;;15.85;8.27;;;-1.20;1.00;;;-0.60;91.21;101621.47;5022887;28;130550;-66
2022/03/21 02:11:53;;;;;;;17.73;9.30;;;-1.30;1.00;;;-0.57;90.81;101612.28;5025210;28;129151;-67
2022/03/21 02:14:23;;;;;;;18.67;10.43;;;-1.40;1.00;;;-0.58;90.32;101622.13;5025291;28;117881;-67
2022/03/21 02:16:54;;;;;;;24.10;11.90;;;-1.40;1.00;;;-0.64;89.66;101616.69;5021926;28;116318;-66
2022/03/21 02:19:31;;;;;;;21.83;11.75;;;-1.60;1.00;;;-0.70;89.49;101623.63;5022603;28;130538;-67
2022/03/21 02:22:22;;;;;;;18.17;9.57;;;-1.70;1.00;;;-0.77;89.87;101618.19;5022380;28;129346;-67
2022/03/21 02:25:02;;;;;;;16.10;9.13;;;-1.70;1.00;;;-0.88;90.56;101615.97;5023221;28;118700;-66
2022/03/21 02:27:36;;;;;;;16.05;8.90;;;-1.70;1.00;;;-0.88;90.52;101610.66;5025053;28;114934;-67
2022/03/21 02:30:06;;;;;;;17.85;9.35;;;-1.70;1.00;;;-0.94;91.22;101627.38;5024450;28;129465;-68
2022/03/21 02:32:37;;;;;;;13.80;7.85;;;-1.70;1.00;;;-0.99;92.55;101619.09;5022644;28;129510;-68
2022/03/21 02:35:07;;;;;;;17.00;8.90;;;-1.60;1.00;;;-0.91;91.36;101621.66;5023088;28;118991;-68
2022/03/21 02:37:37;;;;;;;17.10;9.27;;;-1.70;1.00;;;-0.88;91.14;101623.16;5026064;27;115716;-67
2022/03/21 02:40:08;;;;;;;20.77;10.23;;;-1.70;1.00;;;-0.89;90.75;101630.31;5022718;28;129844;-67
2022/03/21 02:42:39;;;;;;;18.10;8.63;;;-1.80;1.00;;;-0.89;91.40;101622.31;5021961;28;129521;-66
2022/03/21 02:45:08;;;;;;;16.90;10.35;;;-1.80;1.00;;;-0.84;91.63;101622.59;5022822;28;118799;-66
2022/03/21 02:47:37;;;;;;;21.38;10.15;;;-1.70;1.00;;;-0.84;92.26;101621.75;5022557;28;115865;-66
2022/03/21 02:50:12;;;;;;;15.57;9.35;;;-1.60;1.00;;;-0.83;92.15;101621.56;5022203;28;130346;-66
2022/03/21 02:52:43;;;;;;;18.88;10.18;;;-1.60;1.00;;;-0.79;92.52;101625.53;5022102;27;130359;-66
2022/03/21 02:55:11;;;;;;;20.63;11.15;;;-1.60;1.00;;;-0.81;92.79;101622.25;5024543;28;119325;-65
2022/03/21 02:57:41;;;;;;;18.27;9.25;;;-1.50;1.00;;;-0.80;92.89;101623.06;5025629;27;116406;-64
2022/03/21 03:00:12;;;;;;;16.35;9.18;;;-1.50;1.00;;;-0.78;93.23;101621.03;5022317;28;129740;-64
2022/03/21 03:02:41;;;;;;;18.42;9.48;;;-1.40;1.00;;;-0.78;93.87;101626.34;5022483;28;129482;-66
2022/03/21 03:05:09;;;;;;;15.88;8.93;;;-1.30;1.00;;;-0.73;93.79;101624.81;5022272;28;118814;-66
2022/03/21 03:07:39;;;;;;;16.08;9.13;;;-1.20;1.00;;;-0.71;93.92;101621.13;5022954;28;115153;-66
2022/03/21 03:10:08;;;;;;;16.60;8.65;;;-1.20;1.00;;;-0.68;93.96;101615.44;5022908;28;129847;-66
2022/03/21 03:12:37;;;;;;;19.52;9.43;;;-1.10;1.00;;;-0.67;93.80;101617.06;5026735;28;129457;-67
2022/03/21 03:15:10;;;;;;;15.82;8.73;;;-1.10;1.00;;;-0.69;94.13;101624.44;5028637;28;118426;-67
2022/03/21 03:17:38;;;;;;;18.67;9.57;;;-1.10;1.00;;;-0.69;93.52;101624.44;5025965;28;114467;-69
2022/03/21 03:20:09;;;;;;;20.60;10.60;;;-1.10;1.00;;;-0.73;93.74;101622.13;5023134;28;130535;-68
2022/03/21 03:22:39;;;;;;;19.73;10.98;;;-1.20;1.00;;;-0.74;93.19;101628.47;5022269;28;129894;-69
2022/03/21 03:25:09;;;;;;;19.35;9.60;;;-1.40;1.00;;;-0.80;93.38;101623.06;5022469;28;118811;-67
2022/03/21 03:27:37;;;;;;;16.45;8.80;;;-1.40;1.00;;;-0.80;92.50;101620.38;5022356;28;115734;-66
2022/03/21 03:30:09;;;;;;;17.63;10.05;;;-1.50;1.00;;;-0.84;92.28;101616.44;5022222;28;129842;-66
2022/03/21 03:32:39;;;;;;;20.75;10.85;;;-1.60;1.00;;;-0.89;92.16;101619.63;5023464;28;128985;-68
2022/03/21 03:35:09;;;;;;;34.15;15.80;;;-1.70;1.00;;;-0.92;91.91;101625.34;5020760;28;118591;-66
2022/03/21 03:37:39;;;;;;;34.60;16.25;;;-1.80;1.00;;;-0.94;92.13;101622.84;5020755;28;116548;-65
2022/03/21 03:40:10;;;;;;;32.22;15.52;;;-1.90;1.00;;;-0.99;92.86;101614.59;5019965;28;129898;-65
2022/03/21 03:42:38;;;;;;;21.60;11.80;;;-1.70;1.00;;;-0.99;93.72;101621.78;5005982;28;129304;-64
2022/03/21 03:45:11;;;;;;;21.10;11.13;;;-1.70;1.00;;;-1.02;93.86;101617.63;5023614;28;117565;-68
2022/03/21 03:47:39;;;;;;;18.75;9.75;;;-1.70;1.00;;;-1.00;94.38;101622.78;5021871;28;116095;-68
2022/03/21 03:50:09;;;;;;;22.00;11.88;;;-1.60;1.00;;;-1.00;94.75;101617.44;5021152;28;130465;-67
2022/03/21 03:52:38;;;;;;;27.63;13.75;;;-1.60;1.00;;;-1.03;94.88;101617.81;5023418;28;129010;-67
2022/03/21 03:55:07;;;;;;;26.50;13.55;;;-1.60;1.00;;;-1.07;94.59;101616.53;5021442;28;119942;-68
2022/03/21 03:57:36;;;;;;;24.70;12.57;;;-1.60;1.00;;;-1.12;95.08;101620.56;5020630;28;115905;-68
2022/03/21 04:00:07;;;;;;;27.95;13.88;;;-1.60;1.00;;;-1.13;94.73;101624.22;5029329;28;129257;-66
2022/03/21 04:05:30;;;;;;;23.58;10.95;;;-1.70;1.00;;;-1.20;95.23;101612.66;5028995;28;117400;-68
2022/03/21 04:07:58;;;;;;;21.40;10.65;;;-1.70;1.00;;;-1.19;95.92;101611.63;5029140;28;116279;-67
2022/03/21 04:10:27;;;;;;;20.45;10.05;;;-1.70;2.00;;;-1.15;95.87;101618.25;5023048;28;129837;-67
2022/03/21 04:12:55;;;;;;;19.25;10.20;;;-1.70;1.90;;;-1.13;95.93;101618.88;5021172;28;130341;-68
2022/03/21 04:15:24;;;;;;;14.77;9.07;;;-1.70;2.40;;;-1.10;95.54;101618.53;5022919;28;118382;-67
2022/03/21 04:17:59;;;;;;;19.02;9.63;;;-1.70;4.00;;;-1.07;95.58;101621.88;5020022;28;114838;-67
2022/03/21 04:20:31;;;;;;;18.52;9.38;;;-1.70;4.20;;;-1.07;95.22;101621.88;5021177;28;130027;-67
2022/03/21 04:23:00;;;;;;;17.67;9.30;;;-1.70;6.40;;;-0.98;94.62;101626.06;5019475;28;129990;-68
2022/03/21 04:25:29;;;;;;;15.50;8.60;;;-1.80;5.20;;;-0.96;94.68;101624.88;5039714;27;118772;-69
2022/03/21 04:27:58;;;;;;;17.45;9.02;;;-1.80;6.80;;;-0.85;94.30;101631.59;5020748;28;115793;-69
2022/03/21 04:30:28;;;;;;;17.10;9.30;;;-1.70;6.10;;;-0.75;93.56;101637.50;5022905;27;129181;-68
2022/03/21 04:32:58;;;;;;;21.73;10.65;;;-1.70;5.80;;;-0.69;93.42;101635.09;5022344;27;129423;-66
2022/03/21 04:35:26;;;;;;;20.67;10.40;;;-1.70;6.20;;;-0.62;92.88;101636.84;5019913;28;119041;-68
2022/03/21 04:37:55;;;;;;;17.23;9.80;;;-1.70;6.00;;;-0.57;92.25;101633.63;5013609;28;115139;-68
2022/03/21 04:40:24;;;;;;;20.15;11.27;;;-1.60;5.70;;;-0.49;92.04;101630.84;5000287;28;131037;-68
2022/03/21 04:42:52;;;;;;;24.67;11.88;;;-1.70;4.90;;;-0.46;91.80;101635.81;4998409;28;129418;-67
2022/03/21 04:45:22;;;;;;;21.38;10.77;;;-1.60;4.90;;;-0.39;91.89;101631.41;4980913;28;118301;-67
2022/03/21 04:47:50;;;;;;;13.88;8.82;;;-1.40;6.50;;;-0.32;92.36;101636.00;4984998;28;115573;-67
2022/03/21 04:50:20;;;;;;;17.83;8.35;;;-1.20;7.10;;;-0.22;92.21;101639.19;4983377;28;129151;-67
2022/03/21 04:52:49;;;;;;;16.75;8.75;;;-1.10;4.80;;;-0.11;91.88;101638.72;4983242;28;129531;-66
2022/03/21 04:55:17;;;;;;;17.67;9.90;;;-0.90;2.10;;;0.05;91.08;101642.13;4980836;28;117652;-66
2022/03/21 04:57:46;;;;;;;19.02;9.27;;;-0.80;1.00;;;0.20;90.83;101634.09;4980619;28;114891;-66
2022/03/21 05:00:16;;;;;;;19.15;9.57;;;-0.80;1.00;;;0.35;90.10;101643.69;4983594;28;129622;-68
2022/03/21 05:02:45;;;;;;;15.63;9.70;;;-0.70;1.00;;;0.47;89.59;101646.69;4982199;28;129288;-65
2022/03/21 05:05:14;;;;;;;20.25;8.80;;;-0.60;1.00;;;0.59;88.91;101646.97;4999344;28;118423;-66
2022/03/21 05:07:46;;;;;;;17.65;9.10;;;-0.60;1.00;;;0.70;88.43;101649.16;4983861;28;114977;-65
2022/03/21 05:10:15;;;;;;;16.17;8.80;;;-0.50;1.00;;;0.82;87.92;101648.63;4978828;28;129783;-68
2022/03/21 05:12:44;;;;;;;13.63;8.77;;;-0.50;1.00;;;1.02;87.51;101644.22;4980114;28;129363;-67
2022/03/21 05:15:12;;;;;;;17.38;9.95;;;-0.40;1.00;;;1.12;86.66;101645.72;4979172;28;119653;-66
2022/03/21 05:17:40;;;;;;;18.65;9.75;;;-0.30;1.00;;;1.26;86.18;101639.44;4982643;28;115718;-66
2022/03/21 05:20:14;;;;;;;15.57;9.02;;;-0.30;1.00;;;1.37;85.69;101646.94;4980468;28;130776;-66
2022/03/21 05:22:45;;;;;;;15.82;10.60;;;-0.10;1.00;;;1.43;85.06;101646.13;4979942;28;129671;-66
2022/03/21 05:31:01;;;;;;;21.98;12.40;;;0.30;1.00;;;1.68;83.98;101642.94;4998448;28;129844;-66
2022/03/21 05:36:17;;;;;;;39.33;22.38;;;0.50;1.00;;;1.88;83.06;101642.19;4980471;28;118856;-64
2022/03/21 05:38:47;;;;;;;23.45;13.93;;;0.60;1.00;;;2.03;82.64;101642.84;4980306;28;116004;-63
2022/03/21 05:41:15;;;;;;;36.35;20.60;;;0.70;1.00;;;2.12;82.21;101641.66;4979696;28;130671;-63
2022/03/21 05:43:44;;;;;;;16.75;9.88;;;0.80;1.00;;;2.23;81.35;101634.03;4981967;28;128943;-63
2022/03/21 05:46:12;;;;;;;14.98;10.63;;;0.90;1.00;;;2.30;81.16;101632.19;4981214;28;118830;-63
2022/03/21 05:48:54;;;;;;;15.07;9.95;;;1.00;1.00;;;2.45;80.51;101638.19;4980894;28;116411;-63
2022/03/21 05:51:27;;;;;;;20.73;9.77;;;1.10;1.00;;;2.55;79.86;101642.31;4979920;28;129938;-62
2022/03/21 05:53:58;;;;;;;15.05;8.38;;;1.20;1.00;;;2.63;79.07;101644.78;4981631;28;129052;-62
2022/03/21 05:56:27;;;;;;;17.02;7.95;;;1.30;1.00;;;2.73;78.88;101650.59;4998435;28;118381;-61
2022/03/21 05:59:00;;;;;;;14.82;8.55;;;1.40;1.00;;;2.91;78.06;101660.66;4980882;28;115049;-63
2022/03/21 06:01:28;;;;;;;11.60;7.50;;;1.50;1.00;;;2.97;77.67;101654.47;4980978;28;129699;-64
2022/03/21 06:03:57;;;;;;;15.38;7.97;;;1.60;1.00;;;2.97;78.00;101656.34;4980847;28;129767;-61
2022/03/21 06:06:26;;;;;;;17.75;11.80;;;1.70;1.00;;;3.29;76.67;101653.81;4981083;28;119314;-62
2022/03/21 06:08:55;;;;;;;29.35;16.70;;;1.90;1.00;;;3.50;75.47;101656.22;4982806;28;115591;-61
2022/03/21 06:11:24;;;;;;;25.65;13.48;;;2.00;1.00;;;3.74;75.06;101659.22;4979996;28;130221;-62
2022/03/21 06:13:53;;;;;;;22.58;10.05;;;2.10;1.00;;;3.87;74.11;101664.56;4979472;28;130137;-63
2022/03/21 06:16:21;;;;;;;15.45;9.38;;;2.20;1.00;;;3.70;73.78;101656.16;4979620;28;119040;-64
2022/03/21 06:18:51;;;;;;;13.82;8.63;;;2.30;1.00;;;3.51;74.54;101668.63;4998239;28;114820;-61
2022/03/21 06:21:19;;;;;;;16.80;9.77;;;2.30;1.00;;;3.89;73.96;101667.84;4981481;28;130388;-61
2022/03/21 06:23:48;;;;;;;19.77;12.95;;;2.50;1.00;;;4.26;72.36;101665.38;4979592;28;129484;-63
2022/03/21 06:26:19;;;;;;;21.08;10.48;;;2.70;1.00;;;4.44;71.60;101671.88;4979737;28;119396;-63
2022/03/21 06:28:48;;;;;;;17.27;10.05;;;2.80;1.00;;;4.56;71.47;101659.38;4984021;28;116211;-63
2022/03/21 06:31:17;;;;;;;20.15;12.45;;;2.90;1.00;;;4.77;70.18;101665.44;4982401;28;129945;-62
2022/03/21 06:33:46;;;;;;;16.45;10.55;;;3.00;1.00;;;4.80;70.08;101670.38;4984822;28;129356;-62
2022/03/21 06:36:14;;;;;;;20.63;10.82;;;3.10;1.00;;;4.85;70.44;101673.25;4982866;28;118818;-61
2022/03/21 06:38:43;;;;;;;13.65;7.57;;;3.20;1.00;;;4.86;69.63;101670.34;4982863;28;116113;-63
2022/03/21 06:41:14;;;;;;;12.15;7.95;;;3.30;1.00;;;4.57;70.34;101671.00;4982014;28;130515;-62
2022/03/21 06:43:44;;;;;;;13.73;7.22;;;3.30;1.00;;;4.38;71.43;101667.38;4982794;28;129525;-61
2022/03/21 06:46:14;;;;;;;13.15;6.50;;;3.30;1.00;;;4.39;72.05;101674.41;4983257;28;118691;-63
2022/03/21 06:48:42;;;;;;;13.65;7.15;;;3.40;1.00;;;4.42;71.84;101669.41;4983424;28;115027;-61
2022/03/21 06:51:11;;;;;;;16.33;8.07;;;3.50;1.00;;;4.74;71.12;101677.47;4982393;28;130451;-62
2022/03/21 06:53:40;;;;;;;12.32;7.72;;;3.60;1.00;;;4.73;70.46;101669.63;4982518;28;129573;-62
2022/03/21 06:56:09;;;;;;;15.88;8.18;;;3.70;1.00;;;4.58;71.28;101661.84;4982363;28;118925;-62
2022/03/21 06:58:37;;;;;;;15.68;9.10;;;3.80;1.00;;;4.86;70.35;101669.50;4982892;28;115871;-63
2022/03/21 07:01:07;;;;;;;12.63;7.80;;;3.80;1.00;;;5.37;68.55;101671.06;4982905;28;129636;-62
2022/03/21 07:03:35;;;;;;;12.38;7.57;;;4.00;1.00;;;5.32;68.51;101670.13;4982410;28;129446;-61
2022/03/21 07:06:04;;;;;;;14.13;6.95;;;4.20;1.00;;;5.49;67.76;101668.47;4982334;28;119190;-61
2022/03/21 07:08:32;;;;;;;12.73;7.25;;;4.20;1.00;;;5.74;66.74;101665.69;4982708;28;115148;-62
2022/03/21 07:11:02;;;;;;;11.18;6.68;;;4.40;1.00;;;5.62;67.13;101672.88;4981981;28;129971;-62
2022/03/21 07:13:30;;;;;;;11.95;6.75;;;4.50;1.00;;;5.68;67.31;101669.28;4997558;28;129936;-71
2022/03/21 07:15:59;;;;;;;13.60;7.05;;;4.50;1.00;;;5.96;66.53;101676.00;4966642;28;117842;-71
2022/03/21 07:18:29;;;;;;;15.75;8.13;;;4.70;1.00;;;6.36;64.97;101672.78;5001138;28;115020;-70
2022/03/21 07:20:57;;;;;;;14.43;7.25;;;4.80;1.00;;;5.88;66.06;101676.31;4989928;28;129905;-70
2022/03/21 07:23:26;;;;;;;14.73;7.10;;;4.70;1.00;;;6.13;65.66;101672.72;4983956;28;128979;-71
2022/03/21 07:25:55;;;;;;;15.48;8.15;;;4.80;1.00;;;6.32;65.40;101671.59;4982711;28;119118;-70
2022/03/21 07:28:23;;;;;;;12.57;7.10;;;5.00;1.00;;;6.38;64.92;101678.75;4982412;28;114814;-70
2022/03/21 07:30:55;;;;;;;15.32;8.10;;;5.10;1.00;;;6.61;64.55;101671.81;5000357;28;129190;-71
2022/03/21 07:33:24;;;;;;;15.07;6.72;;;5.20;1.00;;;7.10;62.64;101680.50;4981927;28;129651;-70
2022/03/21 07:35:55;;;;;;;14.57;7.10;;;5.50;1.00;;;6.83;63.30;101677.47;4983801;28;118217;-69
2022/03/21 07:38:25;;;;;;;15.77;7.35;;;5.50;1.00;;;6.97;62.98;101678.06;4984125;28;114347;-60
2022/03/21 07:40:53;;;;;;;14.43;7.68;;;5.60;1.00;;;7.40;61.96;101670.63;4981954;28;130704;-61
2022/03/21 07:43:21;;;;;;;13.85;6.15;;;5.70;1.00;;;7.46;61.72;101675.91;4983476;28;130437;-60
2022/03/21 07:48:36;;;;;;;17.60;7.28;;;5.90;1.00;;;7.27;62.88;101677.13;4981776;28;116587;-62
2022/03/21 07:51:07;;;;;;;15.57;7.13;;;5.90;1.00;;;7.48;62.24;101679.22;4981003;28;130979;-61
2022/03/21 07:53:36;;;;;;;14.10;6.32;;;6.00;1.00;;;7.28;61.90;101673.38;4981358;28;129802;-60
2022/03/21 07:56:05;;;;;;;13.48;6.47;;;6.00;1.00;;;7.46;61.46;101677.81;4985754;28;118026;-61
2022/03/21 07:58:33;;;;;;;14.93;6.43;;;6.20;1.00;;;7.45;60.95;101679.69;4982671;28;115016;-60
2022/03/21 08:01:02;;;;;;;13.02;7.15;;;6.10;1.00;;;7.52;61.29;101674.97;4981641;28;129746;-60
2022/03/21 08:03:31;;;;;;;18.33;7.38;;;6.20;1.00;;;7.43;61.38;101672.88;4983128;28;130170;-59
2022/03/21 08:06:00;;;;;;;15.77;8.00;;;6.30;1.00;;;7.43;61.70;101679.09;4985481;28;118933;-61
2022/03/21 08:08:30;;;;;;;17.40;7.55;;;6.40;1.00;;;7.42;60.87;101682.03;4988194;28;115219;-61
2022/03/21 08:10:59;;;;;;;19.05;7.03;;;6.40;1.00;;;7.60;61.19;101679.19;4987826;28;129702;-61
2022/03/21 08:13:27;;;;;;;12.55;6.90;;;6.50;1.00;;;7.88;60.83;101681.13;4988375;28;129482;-61
2022/03/21 08:15:56;;;;;;;13.30;6.68;;;6.70;1.00;;;7.64;61.12;101687.66;4990277;28;119807;-60
2022/03/21 08:18:25;;;;;;;11.63;6.28;;;6.60;1.00;;;7.91;60.46;101677.91;4990459;28;114834;-60
2022/03/21 08:20:53;;;;;;;11.23;5.88;;;6.80;1.00;;;7.76;60.33;101664.13;4990888;28;130332;-60
2022/03/21 08:23:22;;;;;;;11.90;5.57;;;6.90;1.00;;;8.02;59.17;101675.41;4990941;28;128630;-60
2022/03/21 08:25:57;;;;;;;11.18;5.40;;;7.00;1.00;;;8.22;58.36;101675.00;4988811;28;119141;-61
2022/03/21 08:28:26;;;;;;;10.30;5.53;;;7.20;1.00;;;8.38;57.76;101692.31;4987465;28;114545;-61
2022/03/21 08:30:54;;;;;;;14.27;6.35;;;7.20;1.00;;;8.76;56.77;101682.72;4988025;28;130740;-60
2022/03/21 08:33:23;;;;;;;12.02;6.90;;;7.40;1.00;;;8.66;57.22;101679.84;4986924;28;129848;-59
2022/03/21 08:35:51;;;;;;;14.25;8.10;;;7.40;1.00;;;8.89;57.09;101687.78;4983269;28;119651;-61
2022/03/21 08:38:20;;;;;;;8.98;5.68;;;7.50;1.00;;;8.85;56.14;101686.66;4981284;28;116340;-59
2022/03/21 08:40:48;;;;;;;17.48;6.43;;;7.60;1.00;;;8.91;56.19;101688.41;4980739;28;129905;-60
2022/03/21 08:43:18;;;;;;;14.95;5.40;;;7.70;1.00;;;9.04;54.56;101680.97;4980572;28;130044;-60
2022/03/21 08:45:48;;;;;;;11.13;5.18;;;7.80;1.00;;;9.51;54.39;101675.16;4981221;28;119296;-60
2022/03/21 08:48:16;;;;;;;10.95;5.45;;;7.90;1.00;;;9.80;53.10;101681.22;4981210;28;115882;-60
2022/03/21 08:50:45;;;;;;;12.27;4.97;;;8.10;1.00;;;9.85;52.69;101673.13;4979741;28;130323;-61
2022/03/21 08:53:13;;;;;;;9.45;4.15;;;8.30;1.00;;;9.61;53.37;101669.84;4980480;28;129713;-61
2022/03/21 08:55:42;;;;;;;9.10;4.20;;;8.40;1.00;;;9.58;52.89;101672.25;4980854;28;118947;-61
2022/03/21 08:58:10;;;;;;;9.52;4.50;;;8.40;1.00;;;9.30;53.34;101669.47;4981027;28;115085;-61
2022/03/21 09:00:40;;;;;;;9.88;4.15;;;8.40;1.00;;;9.21;53.87;101670.97;4983167;28;132008;-61
2022/03/21 09:03:08;;;;;;;8.80;4.13;;;8.20;1.00;;;9.05;54.72;101669.06;4981253;28;129740;-60
2022/03/21 09:05:37;;;;;;;7.10;4.10;;;8.20;1.00;;;9.40;54.17;101670.69;4981103;28;118497;-60
2022/03/21 09:08:08;;;;;;;8.02;4.40;;;8.40;1.00;;;9.67;52.67;101665.31;4984002;28;114645;-60
2022/03/21 09:10:37;;;;;;;11.23;4.40;;;8.40;1.00;;;9.41;53.28;101666.88;4980449;28;130040;-60
2022/03/21 09:13:06;;;;;;;8.93;4.40;;;8.60;1.00;;;10.25;51.80;101657.53;4980628;28;129272;-61
2022/03/21 09:15:35;;;;;;;10.05;4.78;;;8.80;1.00;;;9.89;52.16;101651.75;4983087;28;119630;-62
2022/03/21 09:18:05;;;;;;;10.05;4.50;;;8.90;1.00;;;10.03;52.59;101652.16;4986023;28;115617;-63
2022/03/21 09:20:33;;;;;;;9.50;4.15;;;9.10;1.00;;;9.90;52.43;101653.38;4986536;28;129746;-62
2022/03/21 09:23:02;;;;;;;8.57;4.57;;;9.00;1.00;;;10.08;51.79;101650.34;4980505;28;129989;-59
2022/03/21 09:25:30;;;;;;;9.05;4.35;;;9.00;1.00;;;10.03;52.12;101660.31;4980582;28;119445;-59
2022/03/21 09:27:58;;;;;;;10.27;4.63;;;9.00;1.00;;;9.90;51.97;101651.47;4980509;28;115719;-60
2022/03/21 09:30:27;;;;;;;11.00;4.43;;;9.10;1.00;;;10.09;52.18;101648.44;4980184;28;131067;-61
2022/03/21 09:32:55;;;;;;;9.70;3.90;;;9.20;1.00;;;10.10;51.55;101641.09;4980286;28;129532;-62
2022/03/21 09:35:25;;;;;;;8.35;3.63;;;9.30;1.00;;;10.46;50.04;101641.50;4980291;28;118711;-60
2022/03/21 09:37:54;;;;;;;7.95;3.78;;;9.40;1.00;;;10.50;50.18;101639.88;4980474;28;115225;-61
2022/03/21 09:40:23;;;;;;;7.97;3.38;;;9.60;1.00;;;10.77;49.77;101629.78;4979957;28;130358;-62
2022/03/21 09:42:53;;;;;;;11.18;4.20;;;9.80;1.00;;;10.58;49.57;101632.09;4980124;28;130802;-61
2022/03/21 09:45:22;;;;;;;9.10;4.50;;;9.80;1.00;;;10.72;49.44;101627.03;4980326;28;118927;-60
2022/03/21 09:50:42;;;;;;;9.48;4.63;;;9.70;1.00;;;11.27;48.46;101616.78;4979541;28;130554;-60
2022/03/21 09:53:13;;;;;;;8.85;3.85;;;9.90;1.00;;;10.75;49.74;101615.66;4979593;28;129683;-60
2022/03/21 09:55:42;;;;;;;9.02;4.40;;;10.00;1.00;;;11.00;49.24;101616.91;4980390;28;118860;-60
2022/03/21 09:58:11;;;;;;;10.57;4.43;;;10.00;1.00;;;11.18;48.74;101620.25;4982509;28;115741;-61
2022/03/21 10:00:41;;;;;;;9.73;4.55;;;10.20;1.00;;;11.14;48.89;101618.06;4979808;28;130553;-65
2022/03/21 10:03:11;;;;;;;9.73;4.72;;;10.20;1.00;;;11.17;49.00;101611.28;4980783;28;130104;-60
2022/03/21 10:05:43;;;;;;;7.15;4.15;;;10.20;1.00;;;11.69;47.48;101604.16;4983581;28;118895;-60
2022/03/21 10:08:16;;;;;;;8.20;4.40;;;10.20;1.00;;;11.88;47.29;101599.84;4983715;28;115503;-61
2022/03/21 10:10:54;;;;;;;8.88;4.57;;;10.50;1.00;;;12.04;46.54;101610.78;4982475;28;130878;-60
2022/03/21 10:13:25;;;;;;;10.55;4.20;;;10.60;1.00;;;12.41;46.44;101596.13;4982855;28;130241;-61
2022/03/21 10:16:09;;;;;;;8.35;4.90;;;10.70;1.00;;;11.62;46.99;101600.88;4984820;28;118458;-62
2022/03/21 10:18:39;;;;;;;8.00;4.35;;;10.50;1.00;;;12.01;46.78;101597.72;4985128;28;115451;-61
2022/03/21 10:21:14;;;;;;;12.10;4.88;;;10.70;1.00;;;11.99;46.72;101597.19;4984348;28;129939;-63
2022/03/21 10:23:44;;;;;;;6.95;4.45;;;10.70;1.00;;;11.85;46.68;101589.50;4982399;28;129624;-60
2022/03/21 10:26:27;;;;;;;7.63;4.22;;;10.80;1.00;;;12.27;46.30;101600.50;4983233;28;118965;-62
2022/03/21 10:28:58;;;;;;;10.02;5.00;;;10.90;1.00;;;12.18;46.35;101598.28;4983117;28;115094;-62
2022/03/21 10:31:41;;;;;;;8.52;4.43;;;10.90;1.00;;;12.39;45.17;101588.22;4982378;28;130405;-61
2022/03/21 10:34:12;;;;;;;9.40;4.35;;;10.90;1.00;;;12.53;45.68;101599.41;4982709;28;129491;-61
2022/03/21 10:37:01;;;;;;;11.90;4.80;;;11.10;1.00;;;12.68;44.84;101600.47;4983207;28;119303;-60
2022/03/21 10:39:32;;;;;;;9.43;4.38;;;11.20;1.00;;;13.03;44.37;101590.59;4982907;28;115197;-62
2022/03/21 10:42:03;;;;;;;12.25;4.68;;;11.20;1.00;;;13.00;44.08;101591.16;4981065;28;129881;-60